createdAt,value
2022-08-08T00:00:59.690Z,39.00
2022-08-08T00:03:20.041Z,39.60
2022-08-08T00:06:02.653Z,40.80
2022-08-08T00:08:43.488Z,41.80
2022-08-08T00:11:46.720Z,42.70
2022-08-08T00:14:59.605Z,43.90
2022-08-08T00:17:58.264Z,45.00
2022-08-08T00:20:28.910Z,46.10
2022-08-08T00:23:02.017Z,47.30
2022-08-08T00:25:46.857Z,48.00
2022-08-08T00:28:35.606Z,49.50
2022-08-08T00:32:20.809Z,50.80
2022-08-08T00:34:50.490Z,51.20
2022-08-08T00:37:47.166Z,52.60
2022-08-08T00:41:10.273Z,53.80
2022-08-08T00:43:46.289Z,55.30
2022-08-08T00:46:57.133Z,56.40
2022-08-08T00:50:02.900Z,57.20
2022-08-08T00:52:54.156Z,58.80
2022-08-08T00:55:53.288Z,60.10
2022-08-08T00:58:54.483Z,61.90
2022-08-08T01:01:38.121Z,63.10
2022-08-08T01:04:29.650Z,64.40
2022-08-08T01:07:05.960Z,66.60
2022-08-08T01:10:00.058Z,67.50
2022-08-08T01:12:57.634Z,69.30
2022-08-08T01:16:05.322Z,71.50
2022-08-08T01:19:11.634Z,72.40
2022-08-08T01:22:23.131Z,75.30
2022-08-08T01:24:59.382Z,75.20
2022-08-08T01:27:44.106Z,76.50
2022-08-08T01:30:48.375Z,77.50
2022-08-08T01:33:53.822Z,79.10
2022-08-08T01:36:28.655Z,80.40
2022-08-08T01:39:23.691Z,80.90
2022-08-08T01:42:14.883Z,82.10
2022-08-08T01:45:19.726Z,84.90
2022-08-08T01:48:23.874Z,86.50
2022-08-08T01:51:31.636Z,89.20
2022-08-08T01:55:26.068Z,90.00
2022-08-08T01:58:11.719Z,91.00
2022-08-08T02:00:48.524Z,91.60
2022-08-08T02:03:54.947Z,92.10
2022-08-08T02:06:36.874Z,93.10
2022-08-08T02:09:18.244Z,93.80
2022-08-08T02:11:59.361Z,94.20
2022-08-08T02:14:55.735Z,94.30
2022-08-08T02:17:25.692Z,95.10
2022-08-08T02:21:17.929Z,95.30
2022-08-08T02:23:55.710Z,95.70
2022-08-08T02:26:33.498Z,96.30
2022-08-08T02:29:22.751Z,96.80
2022-08-08T02:32:10.715Z,97.30
2022-08-08T02:35:07.888Z,97.30
2022-08-08T02:38:00.005Z,97.90
2022-08-08T02:40:55.363Z,98.30
2022-08-08T02:44:39.077Z,98.60
2022-08-08T02:46:30.655Z,98.80
2022-08-08T02:49:18.623Z,99.10
2022-08-08T02:52:35.031Z,99.50
2022-08-08T02:55:43.902Z,99.90
2022-08-08T02:58:34.914Z,99.90
2022-08-08T03:01:52.062Z,99.90
2022-08-08T03:05:03.241Z,99.90
2022-08-08T03:08:14.368Z,99.90
2022-08-08T03:11:05.636Z,99.90
2022-08-08T03:15:58.852Z,99.90
2022-08-08T03:17:09.218Z,99.90
2022-08-08T03:20:03.536Z,99.90
2022-08-08T03:22:48.123Z,99.90
2022-08-08T03:25:19.361Z,99.90
2022-08-08T03:27:56.768Z,99.90
2022-08-08T03:30:24.530Z,99.90
2022-08-08T03:33:55.254Z,99.90
2022-08-08T03:35:59.099Z,99.90
2022-08-08T03:38:56.985Z,99.90
2022-08-08T03:41:43.119Z,99.90
2022-08-08T03:43:59.978Z,99.90
2022-08-08T03:46:32.430Z,99.90
2022-08-08T03:49:30.932Z,99.90
2022-08-08T03:51:56.780Z,99.90
2022-08-08T03:54:51.526Z,99.90
2022-08-08T03:58:31.719Z,99.90
2022-08-08T04:00:07.896Z,99.90
2022-08-08T04:02:51.705Z,99.90
2022-08-08T04:05:19.619Z,99.90
2022-08-08T04:07:55.166Z,99.90
2022-08-08T04:10:21.955Z,99.90
2022-08-08T04:12:49.910Z,99.90
2022-08-08T04:15:17.022Z,99.90
2022-08-08T04:17:46.257Z,99.90
2022-08-08T04:20:28.232Z,99.90
2022-08-08T04:22:56.726Z,99.90
2022-08-08T04:25:30.222Z,99.90
2022-08-08T04:28:34.920Z,99.90
2022-08-08T04:30:47.795Z,99.90
2022-08-08T04:33:15.813Z,99.90
2022-08-08T04:35:51.658Z,99.90
2022-08-08T04:38:21.850Z,99.90
2022-08-08T04:40:53.258Z,99.90
2022-08-08T04:43:22.216Z,99.90
2022-08-08T04:45:50.841Z,99.90
2022-08-08T04:48:21.948Z,99.90
2022-08-08T04:50:49.156Z,99.90
2022-08-08T04:54:36.323Z,99.90
2022-08-08T04:56:04.303Z,99.90
2022-08-08T04:58:31.294Z,99.90
2022-08-08T05:01:00.108Z,99.90
2022-08-08T05:04:11.443Z,99.90
2022-08-08T05:06:25.572Z,99.90
2022-08-08T05:08:54.681Z,99.90
2022-08-08T05:11:24.486Z,99.90
2022-08-08T05:13:54.967Z,99.90
2022-08-08T05:16:51.793Z,99.90
2022-08-08T05:20:12.081Z,99.90
2022-08-08T05:22:02.617Z,99.90
2022-08-08T05:24:30.831Z,99.90
2022-08-08T05:26:58.266Z,99.90
2022-08-08T05:29:29.113Z,99.90
2022-08-08T05:32:04.050Z,99.90
2022-08-08T05:34:43.662Z,99.90
2022-08-08T05:37:17.116Z,99.90
2022-08-08T05:39:50.263Z,99.90
2022-08-08T05:42:19.219Z,99.90
2022-08-08T05:44:49.149Z,99.90
2022-08-08T05:47:21.723Z,99.90
2022-08-08T05:49:53.936Z,99.90
2022-08-08T05:52:35.448Z,99.90
2022-08-08T05:55:09.811Z,99.90
2022-08-08T05:58:05.626Z,99.90
2022-08-08T06:00:31.039Z,99.90
2022-08-08T06:03:17.481Z,99.90
2022-08-08T06:06:01.637Z,99.90
2022-08-08T06:08:53.385Z,99.90
2022-08-08T06:11:22.761Z,99.90
2022-08-08T06:13:55.241Z,99.90
2022-08-08T06:16:27.327Z,99.90
2022-08-08T06:19:00.078Z,99.90
2022-08-08T06:21:49.069Z,99.90
2022-08-08T06:24:23.004Z,99.90
2022-08-08T06:27:04.839Z,99.90
2022-08-08T06:29:59.124Z,99.90
2022-08-08T06:32:31.450Z,99.90
2022-08-08T06:35:30.619Z,99.90
2022-08-08T06:37:58.369Z,99.90
2022-08-08T06:40:29.261Z,99.90
2022-08-08T06:43:09.824Z,99.10
2022-08-08T06:45:39.125Z,98.40
2022-08-08T06:48:06.232Z,96.60
2022-08-08T06:50:33.672Z,95.50
2022-08-08T06:53:10.180Z,93.80
2022-08-08T06:55:47.316Z,93.20
2022-08-08T06:58:30.662Z,92.90
2022-08-08T07:01:24.554Z,92.90
2022-08-08T07:04:37.121Z,92.60
2022-08-08T07:06:59.299Z,91.10
2022-08-08T07:09:45.324Z,90.80
2022-08-08T07:12:43.346Z,90.60
2022-08-08T07:15:40.928Z,85.90
2022-08-08T07:18:36.547Z,84.40
2022-08-08T07:21:01.921Z,81.80
2022-08-08T07:24:01.549Z,77.30
2022-08-08T07:26:35.410Z,78.10
2022-08-08T07:29:05.874Z,77.20
2022-08-08T07:31:36.644Z,72.90
2022-08-08T07:34:09.047Z,72.00
2022-08-08T07:36:37.591Z,68.30
2022-08-08T07:39:29.185Z,65.50
2022-08-08T07:42:04.055Z,63.20
2022-08-08T07:44:37.533Z,63.40
2022-08-08T07:47:07.974Z,62.50
2022-08-08T07:49:34.801Z,61.40
2022-08-08T07:52:03.202Z,57.40
2022-08-08T07:54:38.738Z,55.80
2022-08-08T07:57:17.122Z,56.00
2022-08-08T08:00:16.236Z,55.70
2022-08-08T08:02:53.113Z,54.30
2022-08-08T08:05:33.329Z,53.00
2022-08-08T08:08:15.985Z,51.40
2022-08-08T08:10:49.739Z,49.70
2022-08-08T08:13:42.812Z,48.10
2022-08-08T08:16:24.986Z,47.10
2022-08-08T08:18:59.018Z,47.10
2022-08-08T08:21:44.533Z,47.10
2022-08-08T08:24:18.608Z,45.70
2022-08-08T08:26:52.411Z,45.60
2022-08-08T08:29:19.863Z,44.70
2022-08-08T08:31:53.984Z,44.20
2022-08-08T08:34:24.898Z,42.60
2022-08-08T08:36:59.653Z,41.90
2022-08-08T08:39:39.326Z,41.50
2022-08-08T08:42:28.872Z,40.90
2022-08-08T08:44:59.292Z,39.50
2022-08-08T08:47:27.273Z,37.30
2022-08-08T08:50:17.350Z,37.00
2022-08-08T08:53:18.070Z,35.10
2022-08-08T08:55:49.439Z,34.40
2022-08-08T08:58:32.823Z,33.90
2022-08-08T09:01:08.499Z,33.40
2022-08-08T09:03:47.579Z,32.80
2022-08-08T09:06:34.169Z,31.80
2022-08-08T09:09:18.742Z,30.80
2022-08-08T09:12:06.030Z,32.30
2022-08-08T09:14:35.574Z,31.20
2022-08-08T09:17:15.724Z,31.20
2022-08-08T09:22:02.631Z,30.30
2022-08-08T09:22:34.512Z,30.40
2022-08-08T09:25:01.744Z,29.70
2022-08-08T09:27:56.389Z,29.10
2022-08-08T09:30:22.245Z,28.70
2022-08-08T09:33:55.476Z,28.50
2022-08-08T09:35:50.130Z,27.20
2022-08-08T09:38:32.590Z,27.70
2022-08-08T09:41:06.130Z,27.30
2022-08-08T09:44:06.387Z,26.90
2022-08-08T09:46:38.976Z,26.70
2022-08-08T09:49:42.164Z,26.80
2022-08-08T09:52:06.743Z,26.00
2022-08-08T09:54:44.049Z,25.60
2022-08-08T09:57:16.886Z,24.50
2022-08-08T10:00:01.810Z,24.20
2022-08-08T10:02:37.826Z,24.40
2022-08-08T10:05:14.920Z,23.90
2022-08-08T10:07:46.239Z,24.10
2022-08-08T10:10:13.432Z,24.40
2022-08-08T10:12:54.453Z,24.20
2022-08-08T10:15:35.660Z,24.30
2022-08-08T10:18:10.292Z,24.20
2022-08-08T10:20:57.895Z,24.10
2022-08-08T10:23:41.388Z,24.30
2022-08-08T10:26:52.097Z,23.90
2022-08-08T10:29:43.868Z,23.20
2022-08-08T10:32:32.737Z,23.10
2022-08-08T10:35:20.620Z,23.20
2022-08-08T10:38:08.307Z,22.80
2022-08-08T10:40:38.558Z,22.60
2022-08-08T10:43:06.829Z,21.70
2022-08-08T10:45:55.866Z,21.90
2022-08-08T10:48:58.561Z,21.10
2022-08-08T10:51:47.170Z,20.80
2022-08-08T10:54:25.019Z,21.50
2022-08-08T10:57:08.745Z,21.70
2022-08-08T10:59:39.677Z,21.90
2022-08-08T11:02:09.194Z,21.70
2022-08-08T11:04:53.199Z,20.10
2022-08-08T11:07:40.691Z,20.00
2022-08-08T11:10:19.500Z,19.20
2022-08-08T11:13:27.107Z,19.10
2022-08-08T11:15:53.200Z,18.90
2022-08-08T11:18:30.315Z,19.40
2022-08-08T11:21:00.872Z,19.20
2022-08-08T11:23:40.714Z,18.70
2022-08-08T11:26:07.652Z,19.30
2022-08-08T11:28:38.784Z,19.90
2022-08-08T11:31:09.941Z,19.80
2022-08-08T11:33:53.527Z,20.00
2022-08-08T11:36:27.951Z,20.60
2022-08-08T11:38:57.053Z,21.20
2022-08-08T11:41:27.921Z,21.30
2022-08-08T11:44:00.831Z,21.10
2022-08-08T11:46:31.442Z,20.90
2022-08-08T11:49:01.428Z,20.40
2022-08-08T11:51:40.239Z,20.30
2022-08-08T11:54:26.777Z,20.40
2022-08-08T11:57:14.289Z,20.40
2022-08-08T12:00:01.867Z,20.50
2022-08-08T12:02:41.597Z,20.40
2022-08-08T12:05:12.409Z,20.50
2022-08-08T12:07:56.117Z,20.20
2022-08-08T12:10:28.902Z,20.40
2022-08-08T12:13:10.643Z,20.30
2022-08-08T12:15:46.957Z,20.20
2022-08-08T12:18:25.243Z,20.00
2022-08-08T12:20:54.993Z,20.00
2022-08-08T12:23:40.101Z,19.80
2022-08-08T12:26:16.810Z,19.60
2022-08-08T12:28:57.538Z,19.60
2022-08-08T12:31:39.089Z,19.40
2022-08-08T12:34:33.153Z,19.50
2022-08-08T12:37:08.092Z,19.40
2022-08-08T12:39:59.827Z,19.00
2022-08-08T12:42:22.719Z,19.30
2022-08-08T12:45:53.527Z,19.20
2022-08-08T12:48:32.187Z,18.90
2022-08-08T12:50:57.401Z,19.20
2022-08-08T12:53:37.697Z,19.70
2022-08-08T12:56:19.133Z,18.50
2022-08-08T12:58:54.592Z,18.60
2022-08-08T13:01:36.764Z,18.40
2022-08-08T13:04:24.660Z,18.20
2022-08-08T13:07:07.455Z,18.00
2022-08-08T13:09:57.713Z,18.20
2022-08-08T13:12:30.677Z,17.70
2022-08-08T13:15:00.468Z,17.20
2022-08-08T13:18:08.878Z,16.70
2022-08-08T13:20:19.987Z,16.50
2022-08-08T13:22:47.468Z,16.30
2022-08-08T13:25:22.083Z,15.90
2022-08-08T13:27:54.646Z,16.10
2022-08-08T13:30:26.509Z,16.20
2022-08-08T13:32:57.077Z,15.40
2022-08-08T13:35:29.571Z,14.60
2022-08-08T13:38:12.202Z,14.70
2022-08-08T13:40:44.841Z,14.20
2022-08-08T13:43:12.926Z,13.90
2022-08-08T13:45:40.878Z,14.10
2022-08-08T13:48:15.648Z,14.10
2022-08-08T13:50:55.096Z,13.40
2022-08-08T13:53:36.288Z,13.20
2022-08-08T13:56:10.765Z,12.30
2022-08-08T13:58:57.491Z,12.40
2022-08-08T14:01:41.704Z,12.40
2022-08-08T14:04:22.460Z,12.10
2022-08-08T14:06:58.794Z,11.60
2022-08-08T14:10:04.199Z,11.90
2022-08-08T14:12:20.665Z,11.60
2022-08-08T14:14:47.658Z,11.30
2022-08-08T14:17:22.641Z,11.30
2022-08-08T14:20:15.031Z,11.40
2022-08-08T14:23:10.389Z,10.80
2022-08-08T14:25:56.010Z,10.30
2022-08-08T14:28:28.933Z,10.90
2022-08-08T14:31:07.741Z,11.40
2022-08-08T14:33:36.989Z,12.50
2022-08-08T14:36:13.434Z,13.30
2022-08-08T14:38:52.621Z,14.00
2022-08-08T14:41:45.395Z,13.80
2022-08-08T14:44:19.544Z,13.70
2022-08-08T14:46:58.135Z,14.30
2022-08-08T14:49:51.356Z,14.60
2022-08-08T14:52:21.186Z,14.90
2022-08-08T14:54:49.344Z,15.20
2022-08-08T14:57:16.899Z,15.50
2022-08-08T14:59:50.853Z,15.60
2022-08-08T15:02:25.300Z,15.70
2022-08-08T15:04:52.852Z,15.80
2022-08-08T15:07:24.300Z,15.10
2022-08-08T15:10:06.475Z,15.20
2022-08-08T15:12:37.414Z,15.40
2022-08-08T15:15:09.380Z,15.90
2022-08-08T15:17:37.716Z,15.30
2022-08-08T15:20:12.502Z,15.30
2022-08-08T15:22:44.642Z,15.50
2022-08-08T15:25:17.875Z,15.80
2022-08-08T15:28:03.813Z,16.10
2022-08-08T15:30:42.905Z,16.10
2022-08-08T15:33:09.714Z,16.00
2022-08-08T15:35:41.522Z,16.00
2022-08-08T15:38:12.556Z,15.90
2022-08-08T15:40:40.241Z,16.10
2022-08-08T15:43:18.633Z,17.00
2022-08-08T15:45:58.034Z,17.00
2022-08-08T15:48:24.878Z,17.30
2022-08-08T15:51:03.214Z,17.10
2022-08-08T15:53:40.553Z,17.40
2022-08-08T15:56:19.909Z,17.50
2022-08-08T15:58:48.759Z,17.40
2022-08-08T16:01:16.396Z,17.70
2022-08-08T16:03:43.279Z,18.30
2022-08-08T16:06:15.007Z,18.20
2022-08-08T16:13:00.927Z,18.30
2022-08-08T16:13:05.465Z,18.40
2022-08-08T16:14:33.312Z,18.50
2022-08-08T16:17:01.045Z,18.70
2022-08-08T16:19:30.149Z,18.70
2022-08-08T16:21:58.116Z,18.50
2022-08-08T16:24:24.923Z,18.60
2022-08-08T16:26:51.700Z,18.60
2022-08-08T16:29:37.192Z,18.90
2022-08-08T16:32:12.951Z,18.60
2022-08-08T16:34:47.667Z,18.70
2022-08-08T16:37:16.186Z,19.00
2022-08-08T16:40:01.074Z,18.80
2022-08-08T16:42:30.334Z,19.10
2022-08-08T16:44:59.527Z,19.20
2022-08-08T16:47:41.354Z,19.30
2022-08-08T16:50:14.166Z,19.40
2022-08-08T16:55:01.763Z,19.80
2022-08-08T16:55:54.960Z,20.50
2022-08-08T16:58:20.478Z,20.00
2022-08-08T17:00:49.252Z,20.00
2022-08-08T17:03:25.209Z,20.10
2022-08-08T17:06:35.453Z,20.00
2022-08-08T17:08:54.208Z,20.10
2022-08-08T17:11:21.046Z,20.40
2022-08-08T17:14:01.344Z,20.50
2022-08-08T17:16:29.290Z,20.50
2022-08-08T17:18:56.682Z,20.50
2022-08-08T17:21:26.242Z,20.50
2022-08-08T17:24:00.750Z,20.50
2022-08-08T17:26:29.659Z,20.30
2022-08-08T17:28:58.668Z,20.30
2022-08-08T17:31:43.408Z,20.30
2022-08-08T17:34:49.559Z,20.70
2022-08-08T17:37:09.070Z,20.50
2022-08-08T17:40:03.137Z,20.60
2022-08-08T17:42:26.234Z,20.80
2022-08-08T17:44:53.287Z,20.90
2022-08-08T17:47:27.361Z,21.10
2022-08-08T17:50:00.731Z,21.10
2022-08-08T17:52:29.382Z,21.20
2022-08-08T17:54:56.903Z,21.20
2022-08-08T17:57:24.319Z,21.00
2022-08-08T17:59:51.784Z,21.10
2022-08-08T18:02:29.121Z,21.20
2022-08-08T18:04:58.346Z,21.40
2022-08-08T18:08:15.420Z,21.40
2022-08-08T18:10:14.658Z,21.70
2022-08-08T18:12:42.751Z,21.80
2022-08-08T18:15:12.089Z,21.80
2022-08-08T18:18:08.888Z,21.80
2022-08-08T18:20:44.538Z,21.80
2022-08-08T18:23:14.757Z,21.90
2022-08-08T18:25:43.575Z,22.00
2022-08-08T18:28:13.030Z,22.00
2022-08-08T18:30:41.533Z,22.10
2022-08-08T18:33:36.725Z,22.10
2022-08-08T18:36:03.094Z,22.20
2022-08-08T18:38:34.306Z,22.20
2022-08-08T18:41:03.147Z,22.30
2022-08-08T18:43:37.731Z,22.30
2022-08-08T18:46:55.111Z,22.30
2022-08-08T18:48:56.096Z,22.50
2022-08-08T18:51:48.811Z,22.70
2022-08-08T18:54:21.963Z,22.90
2022-08-08T18:56:53.731Z,22.90
2022-08-08T18:59:20.778Z,22.70
2022-08-08T19:02:27.481Z,22.80
2022-08-08T19:04:37.120Z,23.00
2022-08-08T19:07:04.151Z,23.00
2022-08-08T19:09:49.503Z,23.20
2022-08-08T19:12:19.235Z,23.40
2022-08-08T19:14:53.008Z,23.30
2022-08-08T19:17:29.457Z,23.40
2022-08-08T19:20:07.243Z,23.30
2022-08-08T19:22:36.138Z,23.30
2022-08-08T19:25:59.879Z,23.30
2022-08-08T19:27:57.148Z,23.40
2022-08-08T19:30:27.128Z,23.40
2022-08-08T19:33:00.483Z,23.60
2022-08-08T19:35:45.317Z,23.70
2022-08-08T19:38:17.378Z,23.70
2022-08-08T19:40:55.896Z,23.80
2022-08-08T19:43:28.126Z,23.90
2022-08-08T19:45:58.371Z,24.10
2022-08-08T19:48:29.084Z,24.30
2022-08-08T19:50:59.481Z,24.40
2022-08-08T19:53:52.076Z,24.50
2022-08-08T19:56:16.509Z,24.60
2022-08-08T19:58:54.794Z,24.70
2022-08-08T20:01:31.634Z,24.90
2022-08-08T20:04:09.193Z,25.40
2022-08-08T20:06:36.445Z,25.10
2022-08-08T20:09:08.616Z,25.20
2022-08-08T20:11:43.040Z,25.30
2022-08-08T20:14:34.601Z,25.50
2022-08-08T20:16:57.376Z,25.50
2022-08-08T20:19:33.503Z,26.10
2022-08-08T20:22:05.000Z,25.80
2022-08-08T20:24:32.422Z,26.10
2022-08-08T20:27:01.983Z,26.20
2022-08-08T20:29:45.466Z,26.40
2022-08-08T20:32:14.252Z,26.50
2022-08-08T20:34:47.486Z,26.70
2022-08-08T20:37:14.811Z,26.80
2022-08-08T20:39:51.247Z,26.80
2022-08-08T20:42:29.358Z,26.90
2022-08-08T20:44:56.722Z,27.10
2022-08-08T20:47:24.044Z,27.20
2022-08-08T20:49:55.896Z,27.40
2022-08-08T20:52:26.333Z,27.40
2022-08-08T20:54:53.218Z,27.50
2022-08-08T20:57:20.980Z,27.70
2022-08-08T20:59:48.452Z,27.80
2022-08-08T21:02:25.204Z,27.90
2022-08-08T21:04:57.249Z,28.00
2022-08-08T21:07:31.163Z,28.20
2022-08-08T21:10:16.486Z,28.40
2022-08-08T21:12:44.648Z,28.40
2022-08-08T21:15:16.467Z,28.60
2022-08-08T21:18:01.033Z,28.80
2022-08-08T21:20:34.559Z,28.90
2022-08-08T21:23:02.505Z,29.00
2022-08-08T21:25:36.183Z,29.20
2022-08-08T21:28:15.226Z,29.30
2022-08-08T21:30:49.789Z,29.50
2022-08-08T21:33:20.573Z,30.00
2022-08-08T21:36:18.481Z,29.70
2022-08-08T21:38:34.680Z,29.90
2022-08-08T21:41:01.362Z,30.00
2022-08-08T21:43:33.478Z,30.40
2022-08-08T21:48:05.105Z,30.60
2022-08-08T21:48:54.949Z,31.00
2022-08-08T21:54:22.739Z,31.20
2022-08-08T21:54:22.982Z,31.50
2022-08-08T21:57:03.101Z,31.70
2022-08-08T21:59:43.742Z,32.20
2022-08-08T22:02:19.251Z,32.50
2022-08-08T22:04:50.014Z,32.80
2022-08-08T22:07:18.299Z,33.10
2022-08-08T22:09:45.866Z,34.00
2022-08-08T22:12:15.116Z,33.80
2022-08-08T22:14:47.294Z,34.20
2022-08-08T22:17:17.290Z,34.40
2022-08-08T22:20:10.442Z,34.80
2022-08-08T22:22:37.520Z,35.10
2022-08-08T22:25:12.394Z,35.80
2022-08-08T22:28:02.900Z,36.10
2022-08-08T22:30:32.561Z,36.70
2022-08-08T22:33:01.222Z,37.40
2022-08-08T22:36:05.576Z,38.00
2022-08-08T22:38:17.490Z,38.40
2022-08-08T22:40:44.937Z,39.00
2022-08-08T22:43:15.596Z,38.00
2022-08-08T22:45:43.827Z,1.00
2022-08-08T22:48:13.867Z,1.00
2022-08-08T22:50:40.883Z,1.00
2022-08-08T22:54:28.495Z,1.00
2022-08-08T22:56:01.109Z,1.00
2022-08-08T22:58:34.157Z,1.00
2022-08-08T23:02:01.172Z,1.00
2022-08-08T23:03:55.892Z,1.00
2022-08-08T23:06:24.964Z,1.00
2022-08-08T23:08:55.593Z,1.00
2022-08-08T23:11:30.969Z,1.00
2022-08-08T23:14:16.215Z,1.00
2022-08-08T23:16:47.087Z,1.00
2022-08-08T23:19:21.418Z,1.00
2022-08-08T23:21:48.822Z,1.00
2022-08-08T23:24:22.454Z,1.00
2022-08-08T23:26:53.024Z,1.00
2022-08-08T23:29:23.762Z,1.00
2022-08-08T23:31:50.487Z,1.00
2022-08-08T23:34:19.528Z,1.00
2022-08-08T23:36:47.671Z,1.00
2022-08-08T23:39:15.610Z,1.00
2022-08-08T23:41:47.054Z,1.00
2022-08-08T23:44:20.174Z,1.00
2022-08-08T23:49:02.519Z,1.00
2022-08-08T23:49:38.538Z,1.00
2022-08-08T23:52:08.795Z,1.00
2022-08-08T23:54:42.831Z,1.00
2022-08-08T23:57:38.862Z,1.00
